createdAt,value
2022-07-29T00:07:00.205Z,23.5
2022-07-29T00:21:00.174Z,22.4
2022-07-29T00:35:00.198Z,21.4
2022-07-29T00:49:00.261Z,20.6
2022-07-29T01:03:00.305Z,20.4
2022-07-29T01:17:00.505Z,20.4
2022-07-29T01:31:00.557Z,20.7
2022-07-29T01:45:00.543Z,19.9
2022-07-29T01:59:00.777Z,19.9
2022-07-29T02:13:00.835Z,19.6
2022-07-29T02:27:00.901Z,19.3
2022-07-29T02:41:00.854Z,19.0
2022-07-29T02:55:00.855Z,18.8
2022-07-29T03:09:00.882Z,19.0
2022-07-29T03:23:00.918Z,19.3
2022-07-29T03:37:00.934Z,19.1
2022-07-29T03:52:00.926Z,18.8
2022-07-29T04:07:00.954Z,18.6
2022-07-29T04:22:00.955Z,18.4
2022-07-29T04:37:00.975Z,18.4
2022-07-29T04:52:01.031Z,18.8
2022-07-29T05:07:01.019Z,19.2
2022-07-29T05:22:01.023Z,20.0
2022-07-29T05:37:01.119Z,20.4
2022-07-29T05:52:01.290Z,20.8
2022-07-29T06:07:01.389Z,21.6
2022-07-29T06:22:01.451Z,25.0
2022-07-29T06:37:01.535Z,26.0
2022-07-29T06:52:01.508Z,29.7
2022-07-29T07:07:01.688Z,31.5
2022-07-29T07:22:01.658Z,31.9
2022-07-29T07:37:01.656Z,33.2
2022-07-29T07:52:01.664Z,31.6
2022-07-29T08:07:01.669Z,30.3
2022-07-29T08:22:01.682Z,30.0
2022-07-29T08:37:02.025Z,29.8
2022-07-29T08:52:02.032Z,29.9
2022-07-29T09:07:02.031Z,31.5
2022-07-29T09:22:03.034Z,32.9
2022-07-29T09:38:02.065Z,33.1
2022-07-29T09:53:02.064Z,32.5
2022-07-29T10:09:02.149Z,32.9
2022-07-29T10:24:02.499Z,32.7
2022-07-29T10:40:55.049Z,33.7
2022-07-29T10:47:27.499Z,34.6
2022-07-29T11:03:27.572Z,33.8
2022-07-29T11:18:27.685Z,34.2
2022-07-29T11:33:37.347Z,35.3
2022-07-29T11:49:31.922Z,35.2
2022-07-29T12:20:27.566Z,34.5
2022-07-29T12:35:27.553Z,36.4
2022-07-29T12:50:27.744Z,34.5
2022-07-29T13:05:27.825Z,35.5
2022-07-29T13:20:27.965Z,35.9
2022-07-29T13:36:28.049Z,35.4
2022-07-29T13:51:28.139Z,36.0
2022-07-29T14:06:28.360Z,33.5
2022-07-29T14:21:28.494Z,33.7
2022-07-29T14:36:28.499Z,34.0
2022-07-29T14:51:32.351Z,34.1
2022-07-29T15:06:28.467Z,33.3
2022-07-29T15:21:28.483Z,32.9
2022-07-29T15:36:50.515Z,33.1
2022-07-29T15:51:28.677Z,32.6
2022-07-29T16:06:28.721Z,31.6
2022-07-29T16:22:28.737Z,31.0
2022-07-29T16:37:28.925Z,30.0
2022-07-29T16:52:28.830Z,29.8
2022-07-29T17:08:28.846Z,29.5
2022-07-29T17:23:29.139Z,29.0
2022-07-29T17:38:29.160Z,27.5
2022-07-29T17:53:29.173Z,25.5
2022-07-29T18:08:29.193Z,22.9
2022-07-29T18:23:29.244Z,20.7
2022-07-29T18:38:29.260Z,19.9
2022-07-29T18:53:29.271Z,19.6
2022-07-29T19:08:29.313Z,19.3
2022-07-29T19:22:29.357Z,19.4
2022-07-29T19:36:29.323Z,19.5
2022-07-29T19:50:29.367Z,19.3
2022-07-29T20:04:29.384Z,19.3
2022-07-29T20:18:29.434Z,19.3
2022-07-29T20:32:29.402Z,19.3
2022-07-29T20:46:29.474Z,19.5
2022-07-29T21:00:29.430Z,19.3
2022-07-29T21:14:29.453Z,19.0
2022-07-29T21:28:29.448Z,19.7
2022-07-29T21:42:29.458Z,19.7
2022-07-29T21:56:29.469Z,19.8
2022-07-29T22:10:29.478Z,19.4
2022-07-29T22:24:29.473Z,19.2
2022-07-29T22:38:29.540Z,19.3
2022-07-29T22:52:29.547Z,19.3
2022-07-29T23:06:29.547Z,19.6
2022-07-29T23:20:29.542Z,19.4
2022-07-29T23:34:29.543Z,19.3
2022-07-29T23:48:29.623Z,19.1
